createdAt,value
2023-04-20T00:00:13.479Z,6.85
2023-04-20T00:02:42.891Z,6.87
2023-04-20T00:05:12.007Z,6.84
2023-04-20T00:07:41.758Z,6.91
2023-04-20T00:10:09.871Z,6.80
2023-04-20T00:12:37.187Z,6.80
2023-04-20T00:15:05.528Z,6.83
2023-04-20T00:17:32.782Z,6.66
2023-04-20T00:20:02.127Z,6.49
2023-04-20T00:22:30.909Z,6.63
2023-04-20T00:24:58.209Z,6.69
2023-04-20T00:27:25.602Z,6.56
2023-04-20T00:29:52.838Z,6.50
2023-04-20T00:32:20.106Z,6.54
2023-04-20T00:34:47.676Z,6.64
2023-04-20T00:37:16.322Z,6.39
2023-04-20T00:39:43.603Z,6.36
2023-04-20T00:42:10.871Z,6.33
2023-04-20T00:44:38.082Z,6.32
2023-04-20T00:47:05.522Z,6.25
2023-04-20T00:49:33.150Z,6.21
2023-04-20T00:52:01.090Z,6.15
2023-04-20T00:54:31.029Z,6.21
2023-04-20T00:56:59.759Z,6.21
2023-04-20T00:59:27.317Z,6.19
2023-04-20T01:01:54.805Z,6.39
2023-04-20T01:04:22.164Z,6.25
2023-04-20T01:06:49.568Z,6.11
2023-04-20T01:09:17.042Z,6.33
2023-04-20T01:11:46.036Z,6.37
2023-04-20T01:14:13.277Z,6.39
2023-04-20T01:16:40.713Z,6.36
2023-04-20T01:19:07.906Z,6.23
2023-04-20T01:21:35.174Z,6.16
2023-04-20T01:24:04.238Z,6.22
2023-04-20T01:26:31.628Z,6.25
2023-04-20T01:29:00.538Z,6.25
2023-04-20T01:31:28.134Z,6.13
2023-04-20T01:33:55.463Z,6.13
2023-04-20T01:36:23.187Z,6.02
2023-04-20T01:38:50.687Z,6.04
2023-04-20T01:41:19.879Z,5.91
2023-04-20T01:43:47.290Z,6.16
2023-04-20T01:46:14.597Z,6.16
2023-04-20T01:48:42.149Z,5.98
2023-04-20T01:51:10.139Z,6.22
2023-04-20T01:53:37.755Z,6.15
2023-04-20T01:56:05.474Z,6.22
2023-04-20T01:58:34.466Z,6.16
2023-04-20T02:01:02.542Z,6.16
2023-04-20T02:03:30.068Z,5.98
2023-04-20T02:05:57.557Z,6.01
2023-04-20T02:08:25.153Z,6.15
2023-04-20T02:10:52.450Z,5.98
2023-04-20T02:13:19.975Z,6.08
2023-04-20T02:15:48.597Z,5.90
2023-04-20T02:18:16.359Z,5.95
2023-04-20T02:20:43.812Z,6.01
2023-04-20T02:23:11.476Z,6.01
2023-04-20T02:25:38.963Z,6.04
2023-04-20T02:28:06.486Z,5.93
2023-04-20T02:30:33.678Z,5.84
2023-04-20T02:33:02.512Z,5.87
2023-04-20T02:35:29.754Z,5.66
2023-04-20T02:37:56.990Z,5.81
2023-04-20T02:40:24.277Z,5.75
2023-04-20T02:42:51.455Z,5.71
2023-04-20T02:45:18.861Z,5.66
2023-04-20T02:47:47.195Z,5.56
2023-04-20T02:50:16.074Z,5.60
2023-04-20T02:52:43.322Z,5.48
2023-04-20T02:55:10.741Z,5.54
2023-04-20T02:57:38.048Z,5.63
2023-04-20T03:00:08.962Z,5.60
2023-04-20T03:02:37.698Z,5.58
2023-04-20T03:05:06.151Z,5.60
2023-04-20T03:07:35.032Z,5.56
2023-04-20T03:10:02.391Z,5.56
2023-04-20T03:12:32.054Z,5.43
2023-04-20T03:14:59.404Z,5.44
2023-04-20T03:17:26.768Z,5.42
2023-04-20T03:19:55.312Z,5.33
2023-04-20T03:22:24.792Z,5.32
2023-04-20T03:24:53.768Z,5.37
2023-04-20T03:27:21.241Z,5.25
2023-04-20T03:29:49.170Z,5.50
2023-04-20T03:32:16.567Z,5.48
2023-04-20T03:34:43.724Z,5.42
2023-04-20T03:37:11.046Z,5.44
2023-04-20T03:39:38.314Z,5.47
2023-04-20T03:42:06.990Z,5.37
2023-04-20T03:44:34.289Z,5.44
2023-04-20T03:47:01.625Z,5.42
2023-04-20T03:49:30.241Z,5.47
2023-04-20T03:51:57.434Z,5.61
2023-04-20T03:54:25.298Z,5.63
2023-04-20T03:56:53.773Z,5.56
2023-04-20T03:59:22.505Z,5.56
2023-04-20T04:01:49.854Z,5.54
2023-04-20T04:04:17.374Z,5.50
2023-04-20T04:06:45.023Z,5.51
2023-04-20T04:09:12.393Z,5.63
2023-04-20T04:11:39.803Z,5.48
2023-04-20T04:14:07.382Z,5.48
2023-04-20T04:16:35.973Z,5.50
2023-04-20T04:19:03.382Z,5.51
2023-04-20T04:21:30.913Z,5.46
2023-04-20T04:23:58.456Z,5.58
2023-04-20T04:26:26.858Z,5.56
2023-04-20T04:28:56.233Z,5.63
2023-04-20T04:31:24.785Z,5.61
2023-04-20T04:33:53.551Z,5.67
2023-04-20T04:36:21.689Z,5.71
2023-04-20T04:38:49.570Z,5.58
2023-04-20T04:41:17.759Z,5.61
2023-04-20T04:43:45.959Z,5.66
2023-04-20T04:46:14.563Z,5.66
2023-04-20T04:48:42.449Z,5.60
2023-04-20T04:51:11.213Z,5.74
2023-04-20T04:53:38.552Z,5.79
2023-04-20T04:56:07.018Z,5.95
2023-04-20T04:58:34.549Z,5.87
2023-04-20T05:01:01.897Z,5.98
2023-04-20T05:03:29.310Z,6.08
2023-04-20T05:05:56.794Z,6.11
2023-04-20T05:08:25.610Z,6.18
2023-04-20T05:10:53.030Z,6.21
2023-04-20T05:13:20.442Z,6.11
2023-04-20T05:15:50.300Z,6.12
2023-04-20T05:18:17.598Z,6.19
2023-04-20T05:20:44.831Z,6.23
2023-04-20T05:23:12.370Z,6.33
2023-04-20T05:25:41.194Z,6.21
2023-04-20T05:28:08.443Z,6.28
2023-04-20T05:30:35.811Z,6.36
2023-04-20T05:33:03.174Z,6.40
2023-04-20T05:35:30.987Z,6.47
2023-04-20T05:38:00.514Z,6.60
2023-04-20T05:40:28.566Z,6.64
2023-04-20T05:43:01.146Z,6.77
2023-04-20T05:45:28.519Z,6.81
2023-04-20T05:47:56.849Z,6.91
2023-04-20T05:50:24.782Z,6.87
2023-04-20T05:52:52.352Z,6.90
2023-04-20T05:55:22.209Z,7.07
2023-04-20T05:57:52.053Z,7.25
2023-04-20T06:00:23.792Z,7.59
2023-04-20T06:02:53.003Z,7.80
2023-04-20T06:05:21.077Z,7.57
2023-04-20T06:07:48.668Z,7.56
2023-04-20T06:10:16.617Z,7.62
2023-04-20T06:12:46.944Z,7.56
2023-04-20T06:15:14.450Z,7.59
2023-04-20T06:17:43.757Z,7.80
2023-04-20T06:20:11.834Z,7.65
2023-04-20T06:22:43.951Z,7.70
2023-04-20T06:25:11.561Z,7.76
2023-04-20T06:27:38.872Z,7.76
2023-04-20T06:30:07.286Z,7.83
2023-04-20T06:32:34.596Z,7.91
2023-04-20T06:35:04.315Z,7.97
2023-04-20T06:37:31.615Z,8.29
2023-04-20T06:39:58.951Z,8.33
2023-04-20T06:42:27.448Z,8.29
2023-04-20T06:44:56.419Z,8.31
2023-04-20T06:47:31.447Z,8.42
2023-04-20T06:49:59.111Z,8.57
2023-04-20T06:52:28.321Z,8.52
2023-04-20T06:54:55.711Z,8.59
2023-04-20T06:57:26.476Z,8.67
2023-04-20T06:59:54.351Z,8.83
2023-04-20T07:02:21.963Z,8.94
2023-04-20T07:04:49.520Z,9.00
2023-04-20T07:07:16.875Z,9.24
2023-04-20T07:09:45.682Z,9.39
2023-04-20T07:12:15.871Z,9.40
2023-04-20T07:14:43.513Z,9.36
2023-04-20T07:17:10.900Z,9.45
2023-04-20T07:19:38.410Z,9.57
2023-04-20T07:22:07.613Z,9.60
2023-04-20T07:24:35.132Z,9.70
2023-04-20T07:27:04.103Z,9.80
2023-04-20T07:29:33.841Z,9.84
2023-04-20T07:32:01.779Z,10.15
2023-04-20T07:34:29.511Z,10.25
2023-04-20T07:36:57.216Z,10.62
2023-04-20T07:39:25.693Z,10.61
2023-04-20T07:41:53.160Z,10.72
2023-04-20T07:47:24.773Z,10.84
2023-04-20T07:49:52.376Z,11.23
2023-04-20T07:52:19.937Z,11.06
2023-04-20T07:54:50.420Z,11.01
2023-04-20T08:00:16.835Z,12.23
2023-04-20T08:02:45.150Z,13.50
2023-04-20T08:05:13.143Z,12.31
2023-04-20T08:07:41.086Z,12.03
2023-04-20T08:10:09.254Z,11.71
2023-04-20T08:13:09.602Z,12.27
2023-04-20T08:23:01.280Z,12.81
2023-04-20T08:25:31.234Z,12.88
2023-04-20T08:27:58.852Z,12.93
2023-04-20T08:30:27.363Z,13.19
2023-04-20T08:32:58.611Z,12.82
2023-04-20T08:35:26.682Z,12.62
2023-04-20T08:37:53.963Z,12.99
2023-04-20T08:40:25.228Z,13.27
2023-04-20T08:42:52.618Z,13.73
2023-04-20T08:45:20.056Z,13.60
2023-04-20T08:47:48.917Z,13.68
2023-04-20T08:50:19.506Z,13.40
2023-04-20T08:52:46.996Z,13.33
2023-04-20T08:55:16.520Z,13.53
2023-04-20T08:57:43.771Z,13.61
2023-04-20T09:00:14.008Z,13.74
2023-04-20T09:02:51.828Z,13.81
2023-04-20T09:05:28.013Z,13.82
2023-04-20T09:07:57.562Z,13.85
2023-04-20T09:10:25.808Z,14.00
2023-04-20T09:12:53.650Z,13.94
2023-04-20T09:15:28.240Z,13.92
2023-04-20T09:17:56.423Z,13.97
2023-04-20T09:20:36.257Z,14.19
2023-04-20T09:23:13.410Z,14.15
2023-04-20T09:25:43.789Z,14.25
2023-04-20T09:28:11.692Z,14.59
2023-04-20T09:30:40.160Z,14.56
2023-04-20T09:33:10.854Z,14.76
2023-04-20T09:35:42.394Z,14.98
2023-04-20T09:38:10.917Z,15.35
2023-04-20T09:40:38.231Z,15.43
2023-04-20T09:43:15.178Z,15.46
2023-04-20T09:45:43.057Z,15.32
2023-04-20T09:48:11.643Z,15.32
2023-04-20T09:50:48.496Z,15.19
2023-04-20T09:53:18.070Z,15.38
2023-04-20T09:55:47.374Z,15.70
2023-04-20T09:58:15.385Z,16.05
2023-04-20T10:00:43.038Z,16.05
2023-04-20T10:03:11.662Z,16.62
2023-04-20T10:05:40.469Z,19.06
2023-04-20T10:08:08.206Z,18.30
2023-04-20T10:10:46.787Z,17.53
2023-04-20T10:13:15.325Z,17.23
2023-04-20T10:15:43.532Z,17.51
2023-04-20T10:18:21.100Z,17.75
2023-04-20T10:20:50.578Z,17.51
2023-04-20T10:23:20.076Z,17.55
2023-04-20T10:26:01.236Z,17.58
2023-04-20T10:28:53.509Z,17.32
2023-04-20T10:31:22.159Z,17.97
2023-04-20T10:33:51.184Z,17.82
2023-04-20T10:36:29.041Z,18.26
2023-04-20T10:38:57.354Z,18.20
2023-04-20T10:41:25.025Z,17.82
2023-04-20T10:43:52.505Z,17.53
2023-04-20T10:46:21.969Z,16.94
2023-04-20T10:48:58.209Z,17.34
2023-04-20T10:51:27.439Z,17.90
2023-04-20T10:54:02.607Z,18.43
2023-04-20T10:56:38.362Z,19.43
2023-04-20T10:59:10.318Z,19.78
2023-04-20T11:01:39.433Z,20.74
2023-04-20T11:04:07.808Z,20.20
2023-04-20T11:06:39.566Z,19.85
2023-04-20T11:09:19.336Z,19.41
2023-04-20T11:11:47.245Z,19.41
2023-04-20T11:14:14.671Z,19.30
2023-04-20T11:16:52.320Z,20.40
2023-04-20T11:19:26.157Z,21.63
2023-04-20T11:21:55.472Z,21.42
2023-04-20T11:24:27.655Z,22.22
2023-04-20T11:26:56.353Z,21.94
2023-04-20T11:29:30.675Z,20.60
2023-04-20T11:31:58.908Z,21.81
2023-04-20T11:34:26.956Z,22.44
2023-04-20T11:37:00.607Z,23.27
2023-04-20T11:39:35.728Z,23.35
2023-04-20T11:42:06.533Z,23.49
2023-04-20T11:44:36.678Z,23.66
2023-04-20T11:47:04.329Z,23.70
2023-04-20T11:49:31.774Z,23.82
2023-04-20T11:52:02.061Z,23.75
2023-04-20T11:54:30.853Z,24.16
2023-04-20T11:57:03.193Z,24.48
2023-04-20T11:59:30.745Z,24.62
2023-04-20T12:01:58.220Z,23.72
2023-04-20T12:04:26.354Z,22.55
2023-04-20T12:06:54.010Z,23.69
2023-04-20T12:09:27.513Z,24.02
2023-04-20T12:11:54.937Z,24.20
2023-04-20T12:14:22.245Z,24.03
2023-04-20T12:16:49.448Z,23.95
2023-04-20T12:19:16.951Z,23.15
2023-04-20T12:21:44.623Z,24.62
2023-04-20T12:24:11.941Z,24.28
2023-04-20T12:26:40.800Z,24.72
2023-04-20T12:29:08.064Z,25.00
2023-04-20T12:31:36.157Z,25.78
2023-04-20T12:34:06.604Z,24.73
2023-04-20T12:36:35.237Z,25.26
2023-04-20T12:39:03.690Z,25.98
2023-04-20T12:41:31.356Z,23.66
2023-04-20T12:44:00.747Z,24.65
2023-04-20T12:46:29.436Z,24.35
2023-04-20T12:48:56.760Z,24.96
2023-04-20T12:51:24.674Z,25.96
2023-04-20T12:53:52.096Z,26.50
2023-04-20T12:56:19.307Z,26.87
2023-04-20T12:58:47.239Z,25.43
2023-04-20T13:01:17.310Z,23.39
2023-04-20T13:03:44.922Z,23.00
2023-04-20T13:06:14.272Z,21.70
2023-04-20T13:08:42.294Z,22.08
2023-04-20T13:11:12.216Z,22.21
2023-04-20T13:13:39.757Z,22.39
2023-04-20T13:16:07.738Z,21.22
2023-04-20T13:18:36.957Z,21.32
2023-04-20T13:21:04.281Z,21.18
2023-04-20T13:23:57.604Z,21.18
2023-04-20T13:26:25.078Z,20.78
2023-04-20T13:28:54.222Z,20.99
2023-04-20T13:31:21.548Z,20.60
2023-04-20T13:33:54.700Z,21.19
2023-04-20T13:36:22.558Z,20.51
2023-04-20T13:38:54.590Z,20.10
2023-04-20T13:41:23.710Z,20.54
2023-04-20T13:43:51.037Z,20.73
2023-04-20T13:46:20.208Z,20.20
2023-04-20T13:48:49.631Z,20.41
2023-04-20T13:51:17.735Z,20.30
2023-04-20T13:53:45.260Z,21.11
2023-04-20T13:56:12.664Z,20.29
2023-04-20T13:58:40.077Z,20.06
2023-04-20T14:01:09.506Z,19.92
2023-04-20T14:03:37.495Z,19.64
2023-04-20T14:06:06.757Z,19.72
2023-04-20T14:08:34.097Z,20.39
2023-04-20T14:11:01.577Z,21.32
2023-04-20T14:13:28.840Z,21.13
2023-04-20T14:15:57.340Z,20.81
2023-04-20T14:18:24.901Z,20.33
2023-04-20T14:20:52.511Z,19.93
2023-04-20T14:23:21.194Z,19.78
2023-04-20T14:25:48.500Z,19.49
2023-04-20T14:28:16.904Z,19.47
2023-04-20T14:30:44.955Z,19.71
2023-04-20T14:33:12.729Z,19.65
2023-04-20T14:35:40.542Z,19.62
2023-04-20T14:38:08.267Z,19.53
2023-04-20T14:40:37.077Z,20.47
2023-04-20T14:43:04.678Z,20.13
2023-04-20T14:45:32.166Z,19.35
2023-04-20T14:47:59.605Z,19.07
2023-04-20T14:50:32.020Z,19.53
2023-04-20T14:52:59.263Z,19.83
2023-04-20T14:55:26.698Z,19.71
2023-04-20T14:57:57.004Z,18.85
2023-04-20T15:00:24.873Z,18.73
2023-04-20T15:02:53.878Z,18.84
2023-04-20T15:05:21.630Z,18.99
2023-04-20T15:07:50.829Z,18.71
2023-04-20T15:10:18.567Z,18.41
2023-04-20T15:12:47.304Z,18.41
2023-04-20T15:15:48.947Z,18.71
2023-04-20T15:18:17.056Z,18.69
2023-04-20T15:20:44.608Z,18.55
2023-04-20T15:23:12.119Z,18.68
2023-04-20T15:25:41.962Z,18.62
2023-04-20T15:28:09.572Z,18.68
2023-04-20T15:30:37.128Z,18.73
2023-04-20T15:33:06.122Z,18.62
2023-04-20T15:35:33.656Z,18.62
2023-04-20T15:38:01.188Z,18.73
2023-04-20T15:40:28.467Z,18.76
2023-04-20T15:42:55.963Z,18.69
2023-04-20T15:45:23.456Z,18.75
2023-04-20T15:47:51.431Z,18.71
2023-04-20T15:50:20.791Z,18.72
2023-04-20T15:52:50.010Z,18.72
2023-04-20T15:55:17.689Z,18.82
2023-04-20T15:57:45.122Z,18.82
2023-04-20T16:00:13.745Z,18.78
2023-04-20T16:02:41.263Z,18.85
2023-04-20T16:05:09.592Z,18.79
2023-04-20T16:07:38.254Z,18.75
2023-04-20T16:10:07.281Z,18.54
2023-04-20T16:12:34.640Z,18.66
2023-04-20T16:15:02.140Z,18.41
2023-04-20T16:17:29.555Z,18.31
2023-04-20T16:19:57.029Z,18.47
2023-04-20T16:22:24.860Z,18.54
2023-04-20T16:24:53.673Z,18.55
2023-04-20T16:27:21.050Z,18.49
2023-04-20T16:29:48.476Z,18.52
2023-04-20T16:32:15.753Z,18.47
2023-04-20T16:34:42.911Z,18.47
2023-04-20T16:37:10.130Z,18.34
2023-04-20T16:39:37.452Z,18.40
2023-04-20T16:42:06.317Z,18.40
2023-04-20T16:44:33.498Z,18.68
2023-04-20T16:47:02.129Z,19.50
2023-04-20T16:49:29.571Z,20.10
2023-04-20T16:51:57.713Z,19.44
2023-04-20T16:54:25.071Z,19.14
2023-04-20T16:56:52.362Z,18.64
2023-04-20T16:59:21.565Z,18.21
2023-04-20T17:01:49.528Z,18.00
2023-04-20T17:04:18.392Z,17.85
2023-04-20T17:06:47.060Z,17.52
2023-04-20T17:09:14.556Z,17.35
2023-04-20T17:11:42.092Z,17.17
2023-04-20T17:14:09.465Z,16.94
2023-04-20T17:16:38.162Z,16.88
2023-04-20T17:19:05.862Z,16.69
2023-04-20T17:21:33.448Z,16.56
2023-04-20T17:24:00.827Z,16.39
2023-04-20T17:26:28.709Z,16.17
2023-04-20T17:28:56.618Z,16.25
2023-04-20T17:31:24.089Z,16.07
2023-04-20T17:33:52.896Z,15.98
2023-04-20T17:36:20.205Z,15.87
2023-04-20T17:38:48.011Z,15.83
2023-04-20T17:41:15.369Z,15.67
2023-04-20T17:43:42.792Z,15.56
2023-04-20T17:46:12.251Z,15.16
2023-04-20T17:48:39.601Z,15.02
2023-04-20T17:51:08.776Z,14.95
2023-04-20T17:53:36.726Z,14.89
2023-04-20T17:56:06.294Z,14.81
2023-04-20T17:58:33.496Z,14.68
2023-04-20T18:01:01.217Z,14.51
2023-04-20T18:03:29.037Z,14.51
2023-04-20T18:05:56.392Z,14.44
2023-04-20T18:08:25.078Z,14.40
2023-04-20T18:10:52.461Z,14.37
2023-04-20T18:13:20.110Z,14.32
2023-04-20T18:15:47.816Z,14.39
2023-04-20T18:18:17.158Z,14.32
2023-04-20T18:20:44.890Z,14.09
2023-04-20T18:23:13.949Z,14.05
2023-04-20T18:25:44.223Z,13.86
2023-04-20T18:28:11.882Z,13.75
2023-04-20T18:30:39.801Z,13.71
2023-04-20T18:33:07.308Z,13.70
2023-04-20T18:35:34.933Z,13.63
2023-04-20T18:38:03.112Z,13.50
2023-04-20T18:40:30.647Z,13.58
2023-04-20T18:42:59.614Z,13.39
2023-04-20T18:45:28.511Z,13.47
2023-04-20T18:47:56.421Z,13.37
2023-04-20T18:50:24.372Z,13.35
2023-04-20T18:52:51.617Z,13.32
2023-04-20T18:55:19.273Z,13.40
2023-04-20T18:57:46.929Z,13.36
2023-04-20T19:00:16.724Z,13.33
2023-04-20T19:02:44.492Z,13.23
2023-04-20T19:05:13.378Z,13.17
2023-04-20T19:07:40.948Z,13.03
2023-04-20T19:10:09.265Z,12.85
2023-04-20T19:12:38.712Z,12.74
2023-04-20T19:15:08.921Z,12.65
2023-04-20T19:17:38.294Z,12.61
2023-04-20T19:20:06.994Z,12.67
2023-04-20T19:22:34.299Z,12.69
2023-04-20T19:25:02.346Z,12.79
2023-04-20T19:27:30.788Z,12.57
2023-04-20T19:29:58.513Z,12.51
2023-04-20T19:32:26.279Z,12.38
2023-04-20T19:34:57.524Z,12.38
2023-04-20T19:37:25.366Z,12.36
2023-04-20T19:39:53.473Z,12.26
2023-04-20T19:42:20.927Z,12.29
2023-04-20T19:44:48.850Z,12.31
2023-04-20T19:47:16.307Z,12.30
2023-04-20T19:49:43.949Z,12.19
2023-04-20T19:52:12.736Z,12.00
2023-04-20T19:54:40.335Z,11.86
2023-04-20T19:57:08.129Z,11.76
2023-04-20T19:59:37.856Z,11.64
2023-04-20T20:02:05.825Z,11.62
2023-04-20T20:04:33.746Z,11.61
2023-04-20T20:07:01.357Z,11.58
2023-04-20T20:09:31.474Z,11.65
2023-04-20T20:12:01.190Z,11.59
2023-04-20T20:14:28.801Z,11.47
2023-04-20T20:16:56.990Z,11.39
2023-04-20T20:19:25.023Z,11.32
2023-04-20T20:21:52.441Z,11.44
2023-04-20T20:24:20.888Z,11.30
2023-04-20T20:26:49.598Z,11.27
2023-04-20T20:29:17.287Z,11.18
2023-04-20T20:31:45.210Z,11.20
2023-04-20T20:34:12.620Z,11.27
2023-04-20T20:36:42.609Z,11.09
2023-04-20T20:39:10.021Z,11.01
2023-04-20T20:41:37.254Z,10.93
2023-04-20T20:44:06.601Z,10.76
2023-04-20T20:46:35.595Z,10.63
2023-04-20T20:49:02.909Z,10.58
2023-04-20T20:51:31.470Z,10.69
2023-04-20T20:53:58.869Z,10.61
2023-04-20T20:56:26.446Z,10.69
2023-04-20T20:58:54.408Z,10.63
2023-04-20T21:01:23.298Z,10.48
2023-04-20T21:03:50.898Z,10.56
2023-04-20T21:06:18.202Z,10.53
2023-04-20T21:08:45.532Z,10.48
2023-04-20T21:11:12.743Z,10.53
2023-04-20T21:13:40.065Z,10.58
2023-04-20T21:16:07.379Z,10.53
2023-04-20T21:18:36.232Z,10.46
2023-04-20T21:21:03.758Z,10.38
2023-04-20T21:23:31.307Z,10.40
2023-04-20T21:25:58.604Z,10.42
2023-04-20T21:28:25.927Z,10.31
2023-04-20T21:30:53.842Z,10.18
2023-04-20T21:33:21.399Z,10.20
2023-04-20T21:35:50.261Z,10.21
2023-04-20T21:38:17.443Z,10.21
2023-04-20T21:40:44.674Z,10.15
2023-04-20T21:43:11.973Z,10.10
2023-04-20T21:45:39.221Z,10.08
2023-04-20T21:48:06.972Z,10.14
2023-04-20T21:50:36.415Z,10.11
2023-04-20T21:53:05.401Z,9.93
2023-04-20T21:55:32.807Z,9.96
2023-04-20T21:58:00.077Z,9.86
2023-04-20T22:00:27.468Z,9.75
2023-04-20T22:02:55.181Z,9.77
2023-04-20T22:05:23.144Z,9.97
2023-04-20T22:07:50.693Z,9.87
2023-04-20T22:10:19.446Z,9.93
2023-04-20T22:12:46.890Z,9.87
2023-04-20T22:15:15.150Z,9.86
2023-04-20T22:17:46.502Z,9.72
2023-04-20T22:20:15.643Z,9.69
2023-04-20T22:22:42.926Z,9.69
2023-04-20T22:25:10.548Z,9.69
2023-04-20T22:27:39.322Z,9.66
2023-04-20T22:30:09.551Z,9.73
2023-04-20T22:32:37.400Z,9.66
2023-04-20T22:35:05.451Z,9.59
2023-04-20T22:37:32.657Z,9.52
2023-04-20T22:40:05.992Z,9.70
2023-04-20T22:42:34.799Z,9.67
2023-04-20T22:45:04.061Z,9.46
2023-04-20T22:47:31.549Z,9.43
2023-04-20T22:49:58.839Z,9.46
2023-04-20T22:52:26.093Z,9.52
2023-04-20T22:54:53.713Z,9.39
2023-04-20T22:57:23.961Z,9.53
2023-04-20T22:59:51.591Z,9.52
2023-04-20T23:02:20.389Z,9.55
2023-04-20T23:04:47.746Z,9.36
2023-04-20T23:07:14.996Z,9.40
2023-04-20T23:09:42.908Z,9.32
2023-04-20T23:12:10.472Z,9.24
2023-04-20T23:14:37.737Z,9.29
2023-04-20T23:17:05.036Z,9.38
2023-04-20T23:19:33.645Z,9.38
2023-04-20T23:22:01.189Z,9.60
2023-04-20T23:24:28.504Z,9.55
2023-04-20T23:26:57.027Z,9.42
2023-04-20T23:29:24.342Z,9.18
2023-04-20T23:31:51.713Z,9.21
2023-04-20T23:34:19.627Z,9.17
2023-04-20T23:36:49.107Z,9.36
2023-04-20T23:39:17.023Z,9.15
2023-04-20T23:41:44.885Z,9.38
2023-04-20T23:44:12.245Z,9.46
2023-04-20T23:46:39.819Z,9.01
2023-04-20T23:49:07.018Z,9.08
2023-04-20T23:51:34.429Z,9.07
2023-04-20T23:54:03.602Z,9.17
2023-04-20T23:56:31.137Z,9.08
2023-04-20T23:58:59.293Z,9.19
